Time;durP1;ratioP1;P1;durP2;ratioP2;P2;SDS_P1;SDS_P2;PMS_P1;PMS_P2;Temp;Humidity;BMP_temperature;BMP_pressure;BME280_temperature;BME280_humidity;BME280_pressure;Samples;Min_cycle;Max_cycle;Signal;HPM_P1;HPM_P2
2022/10/03 00:00:19;;;;;;;;;;;;;;;10.07;100.00;97694.13;30001;982;1869;-67
2022/10/03 00:01:08;;;;;;;;;;;;;;;10.06;100.00;97688.97;30001;959;1892;-65
2022/10/03 00:01:46;;;;;;;;;;;;;;;10.05;100.00;97690.87;30001;982;1873;-66
2022/10/03 00:02:46;;;;;;;;;;;;;;;10.05;100.00;97693.56;30001;983;1877;-68
2022/10/03 00:03:35;;;;;;;;;;;;;;;10.04;100.00;97689.25;30001;983;1876;-66
2022/10/03 00:04:26;;;;;;;;;;;;;;;10.03;100.00;97684.09;30001;983;1855;-68
2022/10/03 00:05:17;;;;;;;;;;;;;;;10.02;100.00;97696.84;30001;983;1868;-66
2022/10/03 00:06:01;;;;;;;;;;;;;;;10.02;100.00;97696.03;30001;983;1873;-67
2022/10/03 00:06:46;;;;;;;;;;;;;;;10.02;100.00;97698.75;30001;982;1881;-67
2022/10/03 00:07:41;;;;;;;;;;;;;;;10.01;100.00;97697.94;30001;982;1779;-67
2022/10/03 00:08:29;;;;;;;;;;;;;;;10.02;100.00;97699.56;30001;982;1877;-68
2022/10/03 00:09:08;;;;;;;;;;;;;;;10.02;100.00;97706.87;30001;982;1877;-66
2022/10/03 00:09:59;;;;;;;;;;;;;;;10.02;100.00;97705.00;30001;983;1868;-66
2022/10/03 00:10:49;;;;;;;;;;;;;;;10.02;100.00;97704.16;30001;983;1868;-67
2022/10/03 00:11:38;;;;;;;;;;;;;;;10.01;100.00;97700.66;30001;983;1877;-66
2022/10/03 00:12:16;;;;;;;;;;;;;;;10.00;100.00;97700.91;30001;983;1855;-66
2022/10/03 00:13:06;;;;;;;;;;;;;;;10.00;100.00;97707.16;30001;983;1873;-66
2022/10/03 00:13:59;;;;;;;;;;;;;;;10.00;100.00;97711.75;30001;982;1877;-67
2022/10/03 00:14:40;;;;;;;;;;;;;;;9.99;100.00;97710.94;30001;982;1882;-67
2022/10/03 00:15:14;;;;;;;;;;;;;;;9.99;100.00;97713.66;30001;982;1864;-66
2022/10/03 00:16:06;;;;;;;;;;;;;;;10.00;100.00;97717.19;30001;982;1860;-67
2022/10/03 00:16:59;;;;;;;;;;;;;;;9.99;100.00;97721.78;30001;983;1876;-66
2022/10/03 00:17:41;;;;;;;;;;;;;;;10.00;100.00;97718.00;30001;983;1881;-66
2022/10/03 00:18:49;;;;;;;;;;;;;;;9.98;100.00;97714.75;30001;983;1876;-68
2022/10/03 00:19:55;;;;;;;;;;;;;;;9.98;100.00;97725.59;30001;983;1877;-66
2022/10/03 00:20:44;;;;;;;;;;;;;;;9.97;100.00;97718.53;30001;983;1859;-67
2022/10/03 00:21:23;;;;;;;;;;;;;;;9.96;100.00;97722.31;30001;982;1873;-54
2022/10/03 00:22:17;;;;;;;;;;;;;;;9.96;100.00;97722.31;30001;982;1877;-68
2022/10/03 00:23:11;;;;;;;;;;;;;;;9.97;100.00;97721.25;30001;982;1881;-65
2022/10/03 00:23:50;;;;;;;;;;;;;;;9.97;100.00;97723.94;30001;983;1859;-67
2022/10/03 00:24:38;;;;;;;;;;;;;;;9.97;100.00;97723.94;30001;983;1872;-65
2022/10/03 00:25:41;;;;;;;;;;;;;;;9.96;100.00;97725.03;30001;983;1877;-66
2022/10/03 00:26:35;;;;;;;;;;;;;;;9.95;100.00;97726.12;30001;983;1877;-67
2022/10/03 00:27:38;;;;;;;;;;;;;;;9.95;100.00;97725.31;30001;983;1864;-66
2022/10/03 00:28:17;;;;;;;;;;;;;;;9.94;100.00;97729.91;30001;968;1834;-66
2022/10/03 00:29:11;;;;;;;;;;;;;;;9.94;100.00;97729.91;30001;982;1877;-66
2022/10/03 00:30:04;;;;;;;;;;;;;;;9.94;100.00;97729.91;30001;984;1877;-66
2022/10/03 00:30:51;;;;;;;;;;;;;;;9.92;100.00;97732.06;30001;982;1860;-66
2022/10/03 00:31:38;;;;;;;;;;;;;;;9.92;100.00;97726.66;30001;983;1872;-66
2022/10/03 00:32:25;;;;;;;;;;;;;;;9.92;100.00;97732.06;30001;983;1864;-67
2022/10/03 00:33:06;;;;;;;;;;;;;;;9.91;100.00;97735.88;30001;983;1872;-68
2022/10/03 00:34:02;;;;;;;;;;;;;;;9.90;100.00;97723.41;30001;983;1877;-67
2022/10/03 00:34:57;;;;;;;;;;;;;;;9.89;100.00;97724.47;30001;983;1877;-67
2022/10/03 00:35:59;;;;;;;;;;;;;;;9.89;100.00;97727.19;30001;983;1873;-67
2022/10/03 00:36:42;;;;;;;;;;;;;;;9.90;100.00;97730.72;30001;982;1864;-67
2022/10/03 00:37:30;;;;;;;;;;;;;;;9.89;100.00;97731.78;30001;982;1869;-66
2022/10/03 00:38:16;;;;;;;;;;;;;;;9.88;100.00;97730.97;30001;982;1873;-67
2022/10/03 00:39:05;;;;;;;;;;;;;;;9.90;100.00;97736.94;30001;983;1863;-67
2022/10/03 00:39:43;;;;;;;;;;;;;;;9.88;100.00;97730.97;30001;983;1863;-67
2022/10/03 00:40:34;;;;;;;;;;;;;;;9.89;100.00;97734.50;30001;983;1864;-67
2022/10/03 00:41:16;;;;;;;;;;;;;;;9.89;100.00;97732.59;30001;983;1872;-67
2022/10/03 00:42:11;;;;;;;;;;;;;;;9.88;100.00;97733.69;30001;983;1877;-67
2022/10/03 00:42:56;;;;;;;;;;;;;;;9.88;100.00;97736.41;30001;979;1881;-65
2022/10/03 00:43:49;;;;;;;;;;;;;;;9.88;100.00;97736.41;30001;983;1864;-67
2022/10/03 00:44:37;;;;;;;;;;;;;;;9.88;100.00;97730.97;30001;982;1868;-67
2022/10/03 00:45:28;;;;;;;;;;;;;;;9.87;100.00;97740.19;30001;982;1864;-65
2022/10/03 00:46:19;;;;;;;;;;;;;;;9.88;100.00;97741.00;30001;982;1873;-65
2022/10/03 00:47:08;;;;;;;;;;;;;;;9.87;100.00;97740.19;30001;983;1872;-67
2022/10/03 00:48:05;;;;;;;;;;;;;;;9.88;100.00;97741.81;30001;983;1859;-67
2022/10/03 00:49:05;;;;;;;;;;;;;;;9.88;100.00;97752.66;30001;983;1864;-66
2022/10/03 00:49:57;;;;;;;;;;;;;;;9.88;100.00;97752.66;30001;983;1868;-68
2022/10/03 00:50:57;;;;;;;;;;;;;;;9.87;100.00;97745.63;30001;983;1868;-67
2022/10/03 00:51:40;;;;;;;;;;;;;;;9.87;100.00;97745.63;30001;982;1877;-66
2022/10/03 00:52:46;;;;;;;;;;;;;;;9.88;100.00;97741.81;30001;982;1877;-66
2022/10/03 00:53:26;;;;;;;;;;;;;;;9.88;100.00;97741.00;30001;982;1877;-66
2022/10/03 00:54:15;;;;;;;;;;;;;;;9.87;100.00;97745.63;30001;983;1863;-66
2022/10/03 00:55:05;;;;;;;;;;;;;;;9.87;100.00;97745.63;30001;983;1864;-67
2022/10/03 00:55:49;;;;;;;;;;;;;;;9.87;100.00;97740.19;30001;983;1877;-68
2022/10/03 00:56:48;;;;;;;;;;;;;;;9.86;100.00;97741.28;30001;983;1881;-68
2022/10/03 00:57:38;;;;;;;;;;;;;;;9.86;100.00;97738.56;30001;983;1873;-67
2022/10/03 00:58:27;;;;;;;;;;;;;;;9.86;100.00;97743.97;30001;982;1873;-66
2022/10/03 00:59:23;;;;;;;;;;;;;;;9.86;100.00;97743.97;30001;982;1860;-68
2022/10/03 01:00:14;;;;;;;;;;;;;;;9.84;100.00;97735.28;30001;986;1868;-66
2022/10/03 01:00:49;;;;;;;;;;;;;;;9.84;100.00;97735.28;30001;982;1873;-67
2022/10/03 01:01:42;;;;;;;;;;;;;;;9.84;100.00;97735.28;30001;982;1881;-67
2022/10/03 01:02:33;;;;;;;;;;;;;;;9.85;100.00;97741.53;30001;983;1859;-66
2022/10/03 01:03:20;;;;;;;;;;;;;;;9.84;100.00;97740.72;30001;983;1872;-67
2022/10/03 01:04:15;;;;;;;;;;;;;;;9.84;100.00;97735.28;30001;983;1877;-66
2022/10/03 01:05:05;;;;;;;;;;;;;;;9.83;100.00;97739.09;30001;983;1881;-66
2022/10/03 01:05:44;;;;;;;;;;;;;;;9.83;100.00;97735.56;30001;982;1868;-66
2022/10/03 01:06:38;;;;;;;;;;;;;;;9.83;100.00;97738.28;30001;982;1881;-66
2022/10/03 01:07:27;;;;;;;;;;;;;;;9.83;100.00;97733.66;30001;982;1873;-66
2022/10/03 01:08:27;;;;;;;;;;;;;;;9.85;100.00;97742.34;30001;982;1860;-66
2022/10/03 01:09:21;;;;;;;;;;;;;;;9.85;100.00;97741.53;30001;983;1863;-66
2022/10/03 01:10:11;;;;;;;;;;;;;;;9.86;100.00;97743.97;30001;983;1877;-66
2022/10/03 01:11:07;;;;;;;;;;;;;;;9.86;100.00;97743.97;30001;983;1877;-65
2022/10/03 01:11:59;;;;;;;;;;;;;;;9.87;100.00;97745.63;30001;983;1864;-67
2022/10/03 01:12:55;;;;;;;;;;;;;;;9.87;100.00;97740.19;30001;983;1860;-66
2022/10/03 01:13:45;;;;;;;;;;;;;;;9.88;100.00;97741.81;30001;982;1877;-66
2022/10/03 01:14:42;;;;;;;;;;;;;;;9.88;100.00;97741.81;30001;982;1869;-66
2022/10/03 01:15:33;;;;;;;;;;;;;;;9.88;100.00;97739.09;30001;982;1877;-67
2022/10/03 01:16:16;;;;;;;;;;;;;;;9.89;100.00;97742.63;30001;982;1873;-67
2022/10/03 01:17:13;;;;;;;;;;;;;;;9.89;100.00;97738.03;30001;983;1868;-65
2022/10/03 01:17:53;;;;;;;;;;;;;;;9.88;100.00;97739.09;30001;983;1855;-67
2022/10/03 01:18:29;;;;;;;;;;;;;;;9.89;100.00;97738.03;30001;984;1881;-66
2022/10/03 01:19:16;;;;;;;;;;;;;;;9.87;100.00;97734.75;30001;983;1877;-67
2022/10/03 01:19:58;;;;;;;;;;;;;;;9.89;100.00;97737.22;30001;983;1881;-66
2022/10/03 01:20:38;;;;;;;;;;;;;;;9.88;100.00;97733.69;30001;983;1877;-66
2022/10/03 01:21:14;;;;;;;;;;;;;;;9.88;100.00;97728.25;30001;969;1832;-66
2022/10/03 01:21:50;;;;;;;;;;;;;;;9.87;100.00;97732.06;30001;982;1877;-66
2022/10/03 01:22:34;;;;;;;;;;;;;;;9.87;100.00;97728.53;30002;982;1868;-65
2022/10/03 01:23:34;;;;;;;;;;;;;;;9.86;100.00;97732.31;30001;982;1869;-66
2022/10/03 01:24:27;;;;;;;;;;;;;;;9.86;100.00;97735.84;30002;983;1876;-65
2022/10/03 01:25:10;;;;;;;;;;;;;;;9.86;100.00;97733.12;30002;983;1872;-66
2022/10/03 01:26:00;;;;;;;;;;;;;;;9.87;100.00;97740.19;30002;983;1881;-66
2022/10/03 01:26:50;;;;;;;;;;;;;;;9.87;100.00;97739.38;30002;983;1872;-67
2022/10/03 01:27:27;;;;;;;;;;;;;;;9.87;100.00;97742.09;30002;983;1868;-66
2022/10/03 01:30:21;;;;;;;;;;;;;;;9.88;100.00;97739.09;30002;982;1873;-67
2022/10/03 01:30:58;;;;;;;;;;;;;;;9.88;100.00;97738.28;30002;986;1873;-67
2022/10/03 01:31:33;;;;;;;;;;;;;;;9.86;100.00;97738.56;30002;964;1900;-68
2022/10/03 01:32:19;;;;;;;;;;;;;;;9.86;100.00;97737.75;30002;985;1877;-66
2022/10/03 01:32:55;;;;;;;;;;;;;;;9.86;100.00;97738.56;30002;983;1868;-66
2022/10/03 01:33:39;;;;;;;;;;;;;;;9.85;100.00;97736.94;30002;983;1868;-67
2022/10/03 01:34:19;;;;;;;;;;;;;;;9.85;100.00;97734.22;30002;983;1881;-66
2022/10/03 01:34:59;;;;;;;;;;;;;;;9.86;100.00;97733.12;30002;983;1877;-67
2022/10/03 01:35:57;;;;;;;;;;;;;;;9.86;100.00;97737.75;30002;983;1881;-66
2022/10/03 01:36:41;;;;;;;;;;;;;;;9.84;100.00;97735.28;30002;982;1877;-67
2022/10/03 01:37:41;;;;;;;;;;;;;;;9.83;100.00;97736.38;30002;982;1881;-67
2022/10/03 01:38:31;;;;;;;;;;;;;;;9.81;100.00;97740.44;30002;982;1860;-65
2022/10/03 01:39:14;;;;;;;;;;;;;;;9.80;100.00;97745.03;30002;983;1867;-66
2022/10/03 01:39:50;;;;;;;;;;;;;;;9.80;100.00;97738.81;30002;983;1877;-66
2022/10/03 01:40:29;;;;;;;;;;;;;;;9.79;100.00;97738.00;30002;983;1881;-66
2022/10/03 01:41:05;;;;;;;;;;;;;;;9.77;100.00;97740.16;30002;983;1877;-67
2022/10/03 01:41:59;;;;;;;;;;;;;;;9.77;100.00;97737.44;30002;983;1881;-65
2022/10/03 01:42:48;;;;;;;;;;;;;;;9.77;100.00;97742.03;30002;983;1877;-69
2022/10/03 01:43:21;;;;;;;;;;;;;;;9.76;100.00;97738.53;30002;983;1860;-66
2022/10/03 01:43:54;;;;;;;;;;;;;;;9.76;100.00;97743.94;30002;982;1868;-66
2022/10/03 01:45:03;;;;;;;;;;;;;;;9.75;100.00;97742.31;30002;982;1882;-65
2022/10/03 01:45:55;;;;;;;;;;;;;;;9.76;100.00;97738.53;30002;982;1873;-66
2022/10/03 01:46:37;;;;;;;;;;;;;;;9.78;100.00;97751.81;30002;983;1872;-66
2022/10/03 01:47:29;;;;;;;;;;;;;;;9.77;100.00;97750.19;30002;983;1877;-66
2022/10/03 01:48:07;;;;;;;;;;;;;;;9.73;100.00;97744.47;30002;983;1881;-66
2022/10/03 01:48:56;;;;;;;;;;;;;;;9.72;100.00;97746.38;30002;983;1864;-65
2022/10/03 01:49:33;;;;;;;;;;;;;;;9.72;100.00;97750.97;30002;983;1864;-66
2022/10/03 01:50:16;;;;;;;;;;;;;;;9.71;100.00;97757.47;30002;983;1877;-65
2022/10/03 01:50:58;;;;;;;;;;;;;;;9.70;100.00;97750.44;30002;983;1881;-65
2022/10/03 01:51:33;;;;;;;;;;;;;;;9.69;100.00;97760.47;30002;982;1877;-66
2022/10/03 01:52:23;;;;;;;;;;;;;;;9.70;100.00;97755.88;30002;982;1882;-65
2022/10/03 01:52:59;;;;;;;;;;;;;;;9.70;100.00;97761.28;30002;982;1877;-65
2022/10/03 01:53:48;;;;;;;;;;;;;;;9.71;100.00;97762.91;30002;983;1868;-66
2022/10/03 01:54:30;;;;;;;;;;;;;;;9.70;100.00;97761.28;30002;983;1846;-65
2022/10/03 01:55:12;;;;;;;;;;;;;;;9.69;100.00;97762.38;30002;983;1881;-65
2022/10/03 01:55:53;;;;;;;;;;;;;;;9.69;100.00;97763.19;30002;983;1781;-65
2022/10/03 01:56:30;;;;;;;;;;;;;;;9.70;100.00;97762.06;30002;983;1881;-65
2022/10/03 01:57:10;;;;;;;;;;;;;;;9.70;100.00;97762.06;30002;983;1877;-65
2022/10/03 01:57:59;;;;;;;;;;;;;;;9.72;100.00;97764.53;30002;982;1868;-66
2022/10/03 01:58:39;;;;;;;;;;;;;;;9.72;100.00;97768.06;30002;982;1868;-66
2022/10/03 01:59:18;;;;;;;;;;;;;;;9.72;100.00;97769.94;30002;982;1882;-66
2022/10/03 01:59:57;;;;;;;;;;;;;;;9.72;100.00;97768.06;30002;982;1877;-66
2022/10/03 02:00:48;;;;;;;;;;;;;;;9.72;100.00;97772.66;30002;982;1882;-66
2022/10/03 02:01:45;;;;;;;;;;;;;;;9.73;100.00;97777.00;30002;983;1872;-66
2022/10/03 02:02:34;;;;;;;;;;;;;;;9.74;100.00;97774.03;30002;983;1864;-65
2022/10/03 02:03:40;;;;;;;;;;;;;;;9.75;100.00;97777.53;30002;983;1859;-66
2022/10/03 02:04:29;;;;;;;;;;;;;;;9.76;100.00;97776.47;30002;983;1877;-67
2022/10/03 02:06:26;;;;;;;;;;;;;;;9.77;100.00;97782.69;89988;930;16000;-67
2022/10/03 02:07:10;;;;;;;;;;;;;;;9.77;100.00;97780.00;30001;982;1860;-65
2022/10/03 02:08:16;;;;;;;;;;;;;;;9.76;100.00;97787.31;30001;982;1869;-66
2022/10/03 02:09:00;;;;;;;;;;;;;;;9.76;100.00;97787.31;30001;982;1877;-65
2022/10/03 02:09:43;;;;;;;;;;;;;;;9.75;100.00;97788.38;30001;983;1876;-65
2022/10/03 02:10:28;;;;;;;;;;;;;;;9.74;100.00;97790.28;30001;983;1868;-65
2022/10/03 02:11:02;;;;;;;;;;;;;;;9.74;100.00;97784.03;30001;983;1868;-65
2022/10/03 02:11:43;;;;;;;;;;;;;;;9.73;100.00;97785.94;30001;966;1819;-67
2022/10/03 02:12:33;;;;;;;;;;;;;;;9.74;100.00;97789.47;30001;983;1877;-66
2022/10/03 02:13:27;;;;;;;;;;;;;;;9.73;100.00;97783.22;30001;983;1881;-66
2022/10/03 02:14:06;;;;;;;;;;;;;;;9.73;100.00;97785.13;30001;982;1877;-63
2022/10/03 02:14:46;;;;;;;;;;;;;;;9.74;100.00;97784.84;30001;983;1867;-66
2022/10/03 02:15:25;;;;;;;;;;;;;;;9.73;100.00;97785.94;30001;982;1868;-65
2022/10/03 02:16:24;;;;;;;;;;;;;;;9.74;100.00;97784.84;30001;982;1881;-66
2022/10/03 02:17:06;;;;;;;;;;;;;;;9.73;100.00;97790.53;30001;983;1877;-65
2022/10/03 02:17:56;;;;;;;;;;;;;;;9.74;100.00;97786.75;30001;983;1881;-67
2022/10/03 02:18:34;;;;;;;;;;;;;;;9.76;100.00;97792.72;30001;983;1877;-66
2022/10/03 02:19:10;;;;;;;;;;;;;;;9.77;100.00;97791.66;30001;983;1881;-66
2022/10/03 02:19:49;;;;;;;;;;;;;;;9.78;100.00;97793.28;30001;983;1864;-66
2022/10/03 02:20:55;;;;;;;;;;;;;;;9.79;100.00;97796.81;30001;983;1872;-65
2022/10/03 02:21:27;;;;;;;;;;;;;;;9.78;100.00;97789.75;30001;974;1891;-65
2022/10/03 02:21:59;;;;;;;;;;;;;;;9.77;100.00;97791.66;30001;982;1868;-66
2022/10/03 02:22:37;;;;;;;;;;;;;;;9.78;100.00;97792.47;30001;982;1855;-66
2022/10/03 02:23:35;;;;;;;;;;;;;;;9.77;100.00;97794.34;30001;982;1881;-66
2022/10/03 02:24:28;;;;;;;;;;;;;;;9.79;100.00;97797.63;30001;983;1872;-66
2022/10/03 02:25:19;;;;;;;;;;;;;;;9.78;100.00;97787.84;30001;983;1876;-66
2022/10/03 02:26:02;;;;;;;;;;;;;;;9.79;100.00;97792.19;30001;983;1872;-67
2022/10/03 02:26:53;;;;;;;;;;;;;;;9.78;100.00;97787.03;30001;983;1868;-66
2022/10/03 02:27:42;;;;;;;;;;;;;;;9.78;100.00;97790.56;30001;983;1864;-66
2022/10/03 02:28:31;;;;;;;;;;;;;;;9.77;100.00;97790.84;30001;982;1872;-64
2022/10/03 02:29:20;;;;;;;;;;;;;;;9.77;100.00;97799.78;30001;982;1877;-67
2022/10/03 02:30:23;;;;;;;;;;;;;;;9.78;100.00;97789.75;30001;982;1873;-66
2022/10/03 02:31:23;;;;;;;;;;;;;;;9.78;100.00;97798.69;30001;983;1872;-67
2022/10/03 02:32:12;;;;;;;;;;;;;;;9.78;100.00;97790.56;30001;983;1863;-67
2022/10/03 02:33:04;;;;;;;;;;;;;;;9.78;100.00;97784.34;30001;983;1859;-54
2022/10/03 02:34:10;;;;;;;;;;;;;;;9.77;100.00;97788.94;30001;983;1864;-65
2022/10/03 02:34:59;;;;;;;;;;;;;;;9.77;100.00;97786.22;30001;983;1864;-66
2022/10/03 02:36:05;;;;;;;;;;;;;;;9.76;100.00;97787.31;30001;982;1872;-66
2022/10/03 02:36:55;;;;;;;;;;;;;;;9.76;100.00;97787.31;30001;982;1873;-54
2022/10/03 02:37:47;;;;;;;;;;;;;;;9.77;100.00;97783.50;30001;982;1864;-66
2022/10/03 02:38:36;;;;;;;;;;;;;;;9.77;100.00;97783.50;30001;983;1867;-66
2022/10/03 02:39:30;;;;;;;;;;;;;;;9.78;100.00;97785.16;30001;983;1881;-66
2022/10/03 02:40:23;;;;;;;;;;;;;;;9.79;100.00;97792.19;30001;983;1872;-65
2022/10/03 02:41:23;;;;;;;;;;;;;;;9.79;100.00;97792.19;30001;983;1864;-67
2022/10/03 02:42:04;;;;;;;;;;;;;;;9.79;100.00;97791.37;30001;971;1884;-66
2022/10/03 02:42:53;;;;;;;;;;;;;;;9.78;100.00;97789.75;30001;983;1881;-66
2022/10/03 02:43:44;;;;;;;;;;;;;;;9.77;100.00;97788.94;30001;982;1855;-67
2022/10/03 02:44:50;;;;;;;;;;;;;;;9.77;100.00;97786.22;30001;982;1868;-65
2022/10/03 02:45:47;;;;;;;;;;;;;;;9.76;100.00;97787.31;30001;983;1872;-67
2022/10/03 02:46:53;;;;;;;;;;;;;;;9.75;100.00;97785.69;30001;983;1881;-65
2022/10/03 02:47:36;;;;;;;;;;;;;;;9.75;100.00;97791.09;30001;983;1859;-65
2022/10/03 02:48:26;;;;;;;;;;;;;;;9.74;100.00;97789.47;30001;983;1859;-65
2022/10/03 02:49:15;;;;;;;;;;;;;;;9.73;100.00;97785.13;30001;983;1859;-65
2022/10/03 02:50:05;;;;;;;;;;;;;;;9.73;100.00;97793.25;30001;983;1864;-65
2022/10/03 02:50:58;;;;;;;;;;;;;;;9.73;100.00;97790.53;30001;982;1859;-64
2022/10/03 02:51:47;;;;;;;;;;;;;;;9.75;100.00;97791.09;30001;982;1868;-66
2022/10/03 02:52:38;;;;;;;;;;;;;;;9.74;100.00;97784.03;30001;982;1868;-65
2022/10/03 02:53:31;;;;;;;;;;;;;;;9.73;100.00;97783.22;30001;983;1771;-65
2022/10/03 02:54:20;;;;;;;;;;;;;;;9.73;100.00;97782.41;30001;983;1854;-66
2022/10/03 02:55:09;;;;;;;;;;;;;;;9.72;100.00;97788.91;30001;983;1872;-66
2022/10/03 02:56:05;;;;;;;;;;;;;;;9.72;100.00;97786.22;30001;983;1877;-65
2022/10/03 02:56:56;;;;;;;;;;;;;;;9.72;100.00;97786.22;30001;983;1881;-65
2022/10/03 02:58:01;;;;;;;;;;;;;;;9.69;100.00;97789.47;30001;983;1873;-64
2022/10/03 02:58:55;;;;;;;;;;;;;;;9.65;100.00;97786.47;30001;982;1864;-65
2022/10/03 02:59:37;;;;;;;;;;;;;;;9.64;100.00;97782.13;30001;982;1868;-65
2022/10/03 03:00:13;;;;;;;;;;;;;;;9.64;100.00;97784.03;30001;982;1882;-64
2022/10/03 03:01:03;;;;;;;;;;;;;;;9.64;100.00;97781.31;30001;983;1876;-64
2022/10/03 03:01:56;;;;;;;;;;;;;;;9.61;100.00;97785.38;30001;983;1872;-66
2022/10/03 03:03:05;;;;;;;;;;;;;;;9.62;100.00;97783.47;30001;983;1872;-66
2022/10/03 03:03:46;;;;;;;;;;;;;;;9.63;100.00;97790.53;30001;983;1863;-65
2022/10/03 03:04:37;;;;;;;;;;;;;;;9.63;100.00;97776.97;30001;983;1868;-65
2022/10/03 03:05:26;;;;;;;;;;;;;;;9.65;100.00;97774.81;30001;982;1877;-65
2022/10/03 03:06:15;;;;;;;;;;;;;;;9.62;100.00;97783.47;30001;982;1868;-67
2022/10/03 03:07:11;;;;;;;;;;;;;;;9.61;100.00;97785.38;30001;982;1881;-65
2022/10/03 03:08:00;;;;;;;;;;;;;;;9.60;100.00;97782.94;30001;982;1873;-66
2022/10/03 03:09:00;;;;;;;;;;;;;;;9.60;100.00;97782.94;30001;983;1872;-66
2022/10/03 03:10:00;;;;;;;;;;;;;;;9.59;100.00;97787.53;30001;983;1859;-65
2022/10/03 03:10:55;;;;;;;;;;;;;;;9.59;100.00;97778.59;30001;983;1868;-67
2022/10/03 03:11:53;;;;;;;;;;;;;;;9.60;100.00;97783.75;30001;983;1877;-65
2022/10/03 03:12:34;;;;;;;;;;;;;;;9.58;100.00;97785.91;30001;982;1877;-65
2022/10/03 03:13:24;;;;;;;;;;;;;;;9.58;100.00;97779.66;30001;982;1877;-64
2022/10/03 03:14:18;;;;;;;;;;;;;;;9.58;100.00;97780.47;30001;982;1873;-66
2022/10/03 03:15:07;;;;;;;;;;;;;;;9.59;100.00;97786.72;30001;982;1860;-66
2022/10/03 03:15:56;;;;;;;;;;;;;;;9.59;100.00;97781.28;30001;983;1872;-66
2022/10/03 03:16:56;;;;;;;;;;;;;;;9.60;100.00;97777.50;30001;983;1868;-66
2022/10/03 03:17:41;;;;;;;;;;;;;;;9.60;100.00;97782.94;30001;983;1876;-65
2022/10/03 03:18:25;;;;;;;;;;;;;;;9.58;100.00;97782.37;30001;983;1786;-65
2022/10/03 03:19:18;;;;;;;;;;;;;;;9.57;100.00;97778.03;30001;983;1881;-66
2022/10/03 03:20:09;;;;;;;;;;;;;;;9.58;100.00;97779.66;30001;982;1859;-67
2022/10/03 03:20:55;;;;;;;;;;;;;;;9.58;100.00;97779.66;30001;982;1868;-66
2022/10/03 03:21:40;;;;;;;;;;;;;;;9.56;100.00;97770.97;30001;982;1877;-65
2022/10/03 03:22:33;;;;;;;;;;;;;;;9.56;100.00;97779.09;30001;982;1881;-66
2022/10/03 03:23:24;;;;;;;;;;;;;;;9.55;100.00;97772.06;30001;983;1817;-65
2022/10/03 03:24:30;;;;;;;;;;;;;;;9.55;100.00;97774.78;30001;983;1876;-67
2022/10/03 03:25:30;;;;;;;;;;;;;;;9.54;100.00;97767.72;30001;983;1859;-67
2022/10/03 03:26:15;;;;;;;;;;;;;;;9.54;100.00;97773.13;30001;983;1868;-66
2022/10/03 03:27:17;;;;;;;;;;;;;;;9.52;100.00;97772.59;30001;983;1877;-66
2022/10/03 03:28:23;;;;;;;;;;;;;;;9.50;100.00;97772.84;30001;982;1864;-66
2022/10/03 03:29:17;;;;;;;;;;;;;;;9.48;100.00;97768.78;30001;982;1864;-66
2022/10/03 03:30:05;;;;;;;;;;;;;;;9.48;100.00;97763.34;30001;982;1877;-66
2022/10/03 03:30:44;;;;;;;;;;;;;;;9.48;100.00;97774.19;30001;983;1876;-67
2022/10/03 03:31:26;;;;;;;;;;;;;;;9.49;100.00;97773.13;30001;987;1880;-65
2022/10/03 03:32:15;;;;;;;;;;;;;;;9.48;100.00;97776.91;30001;983;1876;-65
2022/10/03 03:33:02;;;;;;;;;;;;;;;9.46;100.00;97770.94;30001;983;1859;-66
2022/10/03 03:33:45;;;;;;;;;;;;;;;9.43;100.00;97769.56;30001;983;1868;-66
2022/10/03 03:34:29;;;;;;;;;;;;;;;9.44;100.00;97773.91;30001;983;1881;-66
2022/10/03 03:35:32;;;;;;;;;;;;;;;9.41;100.00;97769.81;30001;982;1877;-65
2022/10/03 03:36:15;;;;;;;;;;;;;;;9.39;100.00;97776.59;30001;982;1877;-66
2022/10/03 03:36:53;;;;;;;;;;;;;;;9.35;100.00;97770.09;30001;982;1877;-66
2022/10/03 03:37:46;;;;;;;;;;;;;;;9.34;100.00;97769.28;30001;983;1881;-66
2022/10/03 03:38:35;;;;;;;;;;;;;;;9.35;100.00;97764.66;30001;983;1859;-65
2022/10/03 03:39:34;;;;;;;;;;;;;;;9.34;100.00;97771.97;30001;983;1872;-66
2022/10/03 03:40:31;;;;;;;;;;;;;;;9.31;100.00;97777.91;30001;973;1882;-66
2022/10/03 03:41:20;;;;;;;;;;;;;;;9.30;100.00;97773.59;30001;983;1872;-64
2022/10/03 03:42:11;;;;;;;;;;;;;;;9.30;100.00;97779.00;30001;983;1859;-65
2022/10/03 03:43:15;;;;;;;;;;;;;;;9.29;100.00;97769.25;30001;982;1864;-67
2022/10/03 03:44:05;;;;;;;;;;;;;;;9.24;100.00;97771.91;30001;982;1873;-66
2022/10/03 03:45:05;;;;;;;;;;;;;;;9.24;100.00;97771.91;30001;982;1873;-66
2022/10/03 03:45:53;;;;;;;;;;;;;;;9.25;100.00;97765.44;30001;983;1859;-67
2022/10/03 03:46:49;;;;;;;;;;;;;;;9.25;100.00;97773.56;30001;983;1872;-66
2022/10/03 03:47:46;;;;;;;;;;;;;;;9.25;100.00;97770.84;30001;983;1859;-65
2022/10/03 03:48:41;;;;;;;;;;;;;;;9.27;100.00;97774.09;30001;983;1855;-65
2022/10/03 03:49:21;;;;;;;;;;;;;;;9.27;100.00;97779.53;30001;983;1877;-66
2022/10/03 03:50:24;;;;;;;;;;;;;;;9.26;100.00;97772.47;30001;983;1881;-66
2022/10/03 03:51:05;;;;;;;;;;;;;;;9.21;100.00;97775.16;30001;982;1873;-66
2022/10/03 03:51:59;;;;;;;;;;;;;;;9.21;100.00;97775.16;30001;982;1881;-65
2022/10/03 03:52:56;;;;;;;;;;;;;;;9.20;100.00;97773.53;30001;983;1872;-65
2022/10/03 03:53:58;;;;;;;;;;;;;;;9.20;100.00;97773.53;30001;983;1868;-66
2022/10/03 03:54:56;;;;;;;;;;;;;;;9.21;100.00;97774.34;30001;983;1864;-67
2022/10/03 03:55:34;;;;;;;;;;;;;;;9.20;100.00;97773.53;30001;983;1881;-66
2022/10/03 03:56:20;;;;;;;;;;;;;;;9.19;100.00;97782.72;30001;983;1876;-67
2022/10/03 03:57:20;;;;;;;;;;;;;;;9.19;100.00;97777.31;30001;983;1881;-66
2022/10/03 03:58:14;;;;;;;;;;;;;;;9.17;100.00;97773.22;30001;982;1860;-65
2022/10/03 03:59:12;;;;;;;;;;;;;;;9.16;100.00;97783.25;30001;982;1855;-65
2022/10/03 04:00:21;;;;;;;;;;;;;;;9.17;100.00;97781.34;30001;982;1877;-66
2022/10/03 04:01:07;;;;;;;;;;;;;;;9.18;100.00;97777.56;30001;986;1876;-65
2022/10/03 04:01:58;;;;;;;;;;;;;;;9.15;100.00;97776.19;30001;983;1877;-65
2022/10/03 04:02:49;;;;;;;;;;;;;;;9.13;100.00;97772.12;30001;983;1877;-66
2022/10/03 04:03:35;;;;;;;;;;;;;;;9.13;100.00;97778.34;30001;983;1864;-66
2022/10/03 04:04:24;;;;;;;;;;;;;;;9.12;100.00;97782.13;30001;983;1872;-65
2022/10/03 04:05:17;;;;;;;;;;;;;;;9.11;100.00;97787.81;30001;983;1859;-65
2022/10/03 04:06:02;;;;;;;;;;;;;;;9.09;100.00;97779.94;30001;971;1896;-66
2022/10/03 04:06:46;;;;;;;;;;;;;;;9.10;100.00;97778.88;30001;966;1884;-66
2022/10/03 04:07:31;;;;;;;;;;;;;;;9.11;100.00;97785.09;30001;982;1877;-65
2022/10/03 04:08:22;;;;;;;;;;;;;;;9.12;100.00;97789.44;30001;983;1881;-65
2022/10/03 04:09:12;;;;;;;;;;;;;;;9.09;100.00;97782.66;30001;983;1881;-66
2022/10/03 04:10:06;;;;;;;;;;;;;;;9.10;100.00;97794.28;30001;983;1864;-65
2022/10/03 04:11:00;;;;;;;;;;;;;;;9.10;100.00;97789.69;30001;983;1872;-65
2022/10/03 04:11:48;;;;;;;;;;;;;;;9.07;100.00;97788.31;30001;983;1877;-66
2022/10/03 04:12:43;;;;;;;;;;;;;;;9.07;100.00;97790.22;30001;982;1873;-66
2022/10/03 04:13:30;;;;;;;;;;;;;;;9.07;100.00;97790.22;30001;982;1873;-64
2022/10/03 04:14:20;;;;;;;;;;;;;;;9.07;100.00;97798.34;30001;982;1886;-66
2022/10/03 04:15:09;;;;;;;;;;;;;;;9.07;100.00;97795.63;30001;982;1873;-65
2022/10/03 04:15:58;;;;;;;;;;;;;;;9.06;100.00;97794.00;30001;983;1881;-66
2022/10/03 04:18:59;;;;;;;;;;;;;;;9.12;100.00;97792.16;30001;983;1877;-65
2022/10/03 04:19:49;;;;;;;;;;;;;;;9.12;100.00;97792.97;30001;982;1886;-65
2022/10/03 04:20:46;;;;;;;;;;;;;;;9.10;100.00;97789.69;30001;982;1882;-67
2022/10/03 04:21:35;;;;;;;;;;;;;;;9.11;100.00;97791.31;30001;982;1868;-65
2022/10/03 04:22:13;;;;;;;;;;;;;;;9.09;100.00;97793.47;30001;982;1851;-65
2022/10/03 04:23:07;;;;;;;;;;;;;;;9.07;100.00;97792.91;30001;983;1885;-65
2022/10/03 04:24:04;;;;;;;;;;;;;;;9.06;100.00;97788.59;30001;983;1877;-66
2022/10/03 04:24:53;;;;;;;;;;;;;;;9.07;100.00;97790.22;30001;983;1881;-67
2022/10/03 04:25:37;;;;;;;;;;;;;;;9.06;100.00;97788.59;30001;983;1859;-65
2022/10/03 04:26:28;;;;;;;;;;;;;;;9.07;100.00;97790.22;30001;983;1877;-66
2022/10/03 04:27:19;;;;;;;;;;;;;;;9.06;100.00;97788.59;30001;982;1877;-66
2022/10/03 04:28:07;;;;;;;;;;;;;;;9.06;100.00;97785.88;30001;982;1881;-65
2022/10/03 04:29:01;;;;;;;;;;;;;;;9.06;100.00;97785.88;30001;982;1881;-65